Home   Weather   Switzerland   Lausanne   Past weeks
Flag for Switzerland

Past Weather in Lausanne, Vaud, Switzerland — Yesterday and Last 2 Weeks

Currently: 46 °F. Cool. (Weather station: Payerne, Switzerland). See more current weather

Past Weather in Lausanne — Graph

°F

Lausanne Temperature Yesterday

Maximum temperature yesterday: 72 °F (at 5:50 pm)
Minimum temperature yesterday: 37 °F (at 6:20 am)
Average temperature yesterday: 54 °F

High & Low Weather Summary for the Past Weeks

 TemperatureHumidityPressure
High72 °F (Apr 24, 5:50 pm)100% (Apr 30, 11:20 pm)30.24 "Hg (Apr 30, 11:20 pm)
Low32 °F (May 3, 5:50 am)25% (Apr 25, 4:20 pm)29.62 "Hg (Apr 27, 4:50 pm)
Average52 °F68%29.92 "Hg
* Reported Apr 24 6:20 am — May 9 6:50 am, Lausanne. Weather by CustomWeather, © 2021

Note: Actual official high and low records may vary slightly from our data, if they occured in-between our weather recording intervals... More about our weather records

Lausanne Weather History for the Previous 24 Hours

Scroll right to see more
 ConditionsComfort  
Time TempWeatherWind HumidityBarometerVisibility
6:50 am
Sun, May 9
43 °FQuite cool.2 mph93%29.92 "HgN/A
6:20 am43 °FQuite cool.1 mph93%29.92 "HgN/A
5:50 am43 °FQuite cool.1 mph93%29.92 "HgN/A
5:20 am45 °FQuite cool.No wind87%29.92 "HgN/A
4:50 am45 °FQuite cool.2 mph93%29.92 "HgN/A
4:20 am45 °FQuite cool.No wind87%29.92 "HgN/A
3:50 am46 °FCool.1 mph82%29.92 "HgN/A
3:20 am46 °FCool.1 mph87%29.92 "Hg5 mi
2:50 am48 °FCool.2 mph87%29.95 "Hg4 mi
2:20 am48 °FCool.1 mph87%29.95 "HgN/A
1:50 am50 °FCool.1 mph82%29.95 "HgN/A
1:20 am48 °FCool.No wind87%29.95 "HgN/A
12:50 am52 °FCool.No wind77%29.95 "HgN/A
12:20 am52 °FCool.No wind82%29.95 "HgN/A
11:50 pm
Sat, May 8
54 °FCool.1 mph82%29.95 "HgN/A
11:20 pm55 °FCool.5 mph77%29.95 "HgN/A
10:50 pm55 °FCool.5 mph77%29.95 "HgN/A
10:20 pm57 °FCool.2 mph72%29.95 "HgN/A
9:50 pm61 °FCool.2 mph63%29.95 "HgN/A
9:20 pm64 °FMild.2 mph56%29.95 "HgN/A
8:50 pm66 °FMild.2 mph49%29.95 "HgN/A
8:20 pm66 °FMild.6 mph52%29.95 "HgN/A
7:50 pm68 °FMild.7 mph49%29.95 "HgN/A
7:20 pm72 °FMild.12 mph44%29.95 "HgN/A
6:50 pm72 °FMild.16 mph38%29.95 "HgN/A
6:20 pm70 °FMild.12 mph40%29.95 "HgN/A
5:50 pm72 °FMild.13 mph36%29.95 "HgN/A
5:20 pm70 °FMild.13 mph40%29.98 "HgN/A
4:50 pm68 °FMild.15 mph38%29.98 "HgN/A
4:20 pm68 °FMild.15 mph38%30.01 "HgN/A
3:50 pm68 °FMild.16 mph38%30.01 "HgN/A
3:20 pm68 °FMild.13 mph35%30.01 "HgN/A
2:50 pm63 °FMild.5 mph52%30.01 "HgN/A
2:20 pm63 °FMild.1 mph52%30.04 "HgN/A
1:50 pm59 °FRefreshingly cool.2 mph59%30.07 "HgN/A
1:20 pm57 °FCool.2 mph63%30.07 "HgN/A
12:50 pm57 °FCool.6 mph63%30.07 "HgN/A
12:20 pm55 °FCool.6 mph67%30.09 "HgN/A
11:50 am55 °FCool.5 mph63%30.09 "HgN/A
11:20 am54 °FCool.5 mph72%30.09 "HgN/A
10:50 am52 °FPassing clouds.2 mph77%30.09 "HgN/A
10:20 am52 °FCool.No wind72%30.09 "HgN/A
9:50 am50 °FPassing clouds.1 mph76%30.12 "HgN/A
9:20 am48 °FPassing clouds.1 mph82%30.12 "HgN/A
8:50 am48 °FPassing clouds.No wind82%30.12 "HgN/A
8:20 am43 °FQuite cool.2 mph87%30.12 "HgN/A
Weather by CustomWeather, © 2021

See weather overview